sensor_id;sensor_type;location;lat;lon;timestamp;P1;durP1;ratioP1;P2;durP2;ratioP2
6288;SDS011;3177;49.880;8.836;2024-01-27T00:01:14;3.93;;;2.60;;
6288;SDS011;3177;49.880;8.836;2024-01-27T00:03:41;7.63;;;2.30;;
6288;SDS011;3177;49.880;8.836;2024-01-27T00:06:08;6.93;;;2.57;;
6288;SDS011;3177;49.880;8.836;2024-01-27T00:08:46;4.20;;;2.50;;
6288;SDS011;3177;49.880;8.836;2024-01-27T00:11:13;3.87;;;2.60;;
6288;SDS011;3177;49.880;8.836;2024-01-27T00:13:40;2.83;;;2.30;;
6288;SDS011;3177;49.880;8.836;2024-01-27T00:16:07;4.13;;;2.20;;
6288;SDS011;3177;49.880;8.836;2024-01-27T00:18:35;3.30;;;2.30;;
6288;SDS011;3177;49.880;8.836;2024-01-27T00:21:02;3.33;;;2.40;;
6288;SDS011;3177;49.880;8.836;2024-01-27T00:23:30;4.63;;;2.63;;
6288;SDS011;3177;49.880;8.836;2024-01-27T00:25:58;4.03;;;2.50;;
6288;SDS011;3177;49.880;8.836;2024-01-27T00:28:25;2.40;;;2.20;;
6288;SDS011;3177;49.880;8.836;2024-01-27T00:30:52;3.90;;;2.20;;
6288;SDS011;3177;49.880;8.836;2024-01-27T00:33:19;7.67;;;2.60;;
6288;SDS011;3177;49.880;8.836;2024-01-27T00:35:46;3.70;;;1.90;;
6288;SDS011;3177;49.880;8.836;2024-01-27T00:38:13;6.07;;;2.90;;
6288;SDS011;3177;49.880;8.836;2024-01-27T00:40:41;6.43;;;2.60;;
6288;SDS011;3177;49.880;8.836;2024-01-27T00:43:09;4.93;;;2.70;;
6288;SDS011;3177;49.880;8.836;2024-01-27T00:45:36;6.17;;;2.63;;
6288;SDS011;3177;49.880;8.836;2024-01-27T00:48:04;3.80;;;2.17;;
6288;SDS011;3177;49.880;8.836;2024-01-27T00:50:31;6.87;;;2.80;;
6288;SDS011;3177;49.880;8.836;2024-01-27T00:52:58;4.10;;;2.60;;
6288;SDS011;3177;49.880;8.836;2024-01-27T00:55:25;2.77;;;2.27;;
6288;SDS011;3177;49.880;8.836;2024-01-27T00:57:52;8.23;;;2.87;;
6288;SDS011;3177;49.880;8.836;2024-01-27T01:00:21;4.37;;;2.57;;
6288;SDS011;3177;49.880;8.836;2024-01-27T01:02:48;7.60;;;2.70;;
6288;SDS011;3177;49.880;8.836;2024-01-27T01:05:15;3.27;;;2.77;;
6288;SDS011;3177;49.880;8.836;2024-01-27T01:07:42;5.10;;;2.57;;
6288;SDS011;3177;49.880;8.836;2024-01-27T01:10:09;4.83;;;2.80;;
6288;SDS011;3177;49.880;8.836;2024-01-27T01:12:36;4.73;;;2.30;;
6288;SDS011;3177;49.880;8.836;2024-01-27T01:15:04;4.60;;;2.50;;
6288;SDS011;3177;49.880;8.836;2024-01-27T01:17:32;4.03;;;3.30;;
6288;SDS011;3177;49.880;8.836;2024-01-27T01:19:59;5.43;;;2.83;;
6288;SDS011;3177;49.880;8.836;2024-01-27T01:22:26;3.63;;;2.57;;
6288;SDS011;3177;49.880;8.836;2024-01-27T01:24:53;5.57;;;2.73;;
6288;SDS011;3177;49.880;8.836;2024-01-27T01:27:24;3.93;;;2.60;;
6288;SDS011;3177;49.880;8.836;2024-01-27T01:29:51;7.80;;;2.63;;
6288;SDS011;3177;49.880;8.836;2024-01-27T01:32:18;4.90;;;3.00;;
6288;SDS011;3177;49.880;8.836;2024-01-27T01:34:47;2.53;;;2.40;;
6288;SDS011;3177;49.880;8.836;2024-01-27T01:37:14;7.33;;;3.13;;
6288;SDS011;3177;49.880;8.836;2024-01-27T01:39:41;3.40;;;2.90;;
6288;SDS011;3177;49.880;8.836;2024-01-27T01:42:08;3.30;;;2.90;;
6288;SDS011;3177;49.880;8.836;2024-01-27T01:44:35;4.93;;;3.57;;
6288;SDS011;3177;49.880;8.836;2024-01-27T01:47:03;4.80;;;3.20;;
6288;SDS011;3177;49.880;8.836;2024-01-27T01:49:31;5.03;;;3.23;;
6288;SDS011;3177;49.880;8.836;2024-01-27T01:51:59;4.43;;;3.13;;
6288;SDS011;3177;49.880;8.836;2024-01-27T01:54:26;2.83;;;2.63;;
6288;SDS011;3177;49.880;8.836;2024-01-27T01:56:54;6.00;;;2.93;;
6288;SDS011;3177;49.880;8.836;2024-01-27T01:59:23;3.60;;;2.67;;
6288;SDS011;3177;49.880;8.836;2024-01-27T02:01:53;6.30;;;3.40;;
6288;SDS011;3177;49.880;8.836;2024-01-27T02:04:20;5.40;;;3.23;;
6288;SDS011;3177;49.880;8.836;2024-01-27T02:06:47;3.33;;;2.70;;
6288;SDS011;3177;49.880;8.836;2024-01-27T02:09:16;8.57;;;3.13;;
6288;SDS011;3177;49.880;8.836;2024-01-27T02:11:43;3.97;;;2.80;;
6288;SDS011;3177;49.880;8.836;2024-01-27T02:14:10;4.40;;;2.80;;
6288;SDS011;3177;49.880;8.836;2024-01-27T02:16:37;6.23;;;3.27;;
6288;SDS011;3177;49.880;8.836;2024-01-27T02:19:04;4.77;;;3.23;;
6288;SDS011;3177;49.880;8.836;2024-01-27T02:21:31;6.30;;;3.20;;
6288;SDS011;3177;49.880;8.836;2024-01-27T02:23:59;5.77;;;3.00;;
6288;SDS011;3177;49.880;8.836;2024-01-27T02:26:27;4.70;;;3.23;;
6288;SDS011;3177;49.880;8.836;2024-01-27T02:28:54;7.63;;;3.27;;
6288;SDS011;3177;49.880;8.836;2024-01-27T02:31:21;3.20;;;2.50;;
6288;SDS011;3177;49.880;8.836;2024-01-27T02:33:48;8.33;;;2.90;;
6288;SDS011;3177;49.880;8.836;2024-01-27T02:36:15;4.67;;;3.10;;
6288;SDS011;3177;49.880;8.836;2024-01-27T02:38:42;3.43;;;3.13;;
6288;SDS011;3177;49.880;8.836;2024-01-27T02:41:09;2.77;;;2.57;;
6288;SDS011;3177;49.880;8.836;2024-01-27T02:43:38;4.57;;;2.93;;
6288;SDS011;3177;49.880;8.836;2024-01-27T02:46:05;4.50;;;3.00;;
6288;SDS011;3177;49.880;8.836;2024-01-27T02:48:32;4.60;;;2.63;;
6288;SDS011;3177;49.880;8.836;2024-01-27T02:53:48;7.43;;;3.13;;
6288;SDS011;3177;49.880;8.836;2024-01-27T02:56:15;9.30;;;3.30;;
6288;SDS011;3177;49.880;8.836;2024-01-27T02:58:44;4.10;;;3.33;;
6288;SDS011;3177;49.880;8.836;2024-01-27T03:01:11;5.63;;;3.20;;
6288;SDS011;3177;49.880;8.836;2024-01-27T03:03:38;5.40;;;2.70;;
6288;SDS011;3177;49.880;8.836;2024-01-27T03:06:05;2.93;;;2.63;;
6288;SDS011;3177;49.880;8.836;2024-01-27T03:08:32;4.50;;;3.00;;
6288;SDS011;3177;49.880;8.836;2024-01-27T03:10:59;3.50;;;2.83;;
6288;SDS011;3177;49.880;8.836;2024-01-27T03:13:26;6.57;;;3.30;;
6288;SDS011;3177;49.880;8.836;2024-01-27T03:15:54;6.23;;;3.30;;
6288;SDS011;3177;49.880;8.836;2024-01-27T03:18:21;5.27;;;3.00;;
6288;SDS011;3177;49.880;8.836;2024-01-27T03:20:49;10.80;;;3.17;;
6288;SDS011;3177;49.880;8.836;2024-01-27T03:23:16;4.20;;;3.50;;
6288;SDS011;3177;49.880;8.836;2024-01-27T03:25:43;3.23;;;2.80;;
6288;SDS011;3177;49.880;8.836;2024-01-27T03:28:11;3.53;;;3.23;;
6288;SDS011;3177;49.880;8.836;2024-01-27T03:30:38;3.10;;;2.80;;
6288;SDS011;3177;49.880;8.836;2024-01-27T03:33:06;6.17;;;2.93;;
6288;SDS011;3177;49.880;8.836;2024-01-27T03:35:35;4.27;;;2.80;;
6288;SDS011;3177;49.880;8.836;2024-01-27T03:38:03;3.87;;;2.53;;
6288;SDS011;3177;49.880;8.836;2024-01-27T03:40:30;4.67;;;3.07;;
6288;SDS011;3177;49.880;8.836;2024-01-27T03:42:57;5.70;;;2.20;;
6288;SDS011;3177;49.880;8.836;2024-01-27T03:45:24;3.10;;;2.53;;
6288;SDS011;3177;49.880;8.836;2024-01-27T03:47:51;5.67;;;3.00;;
6288;SDS011;3177;49.880;8.836;2024-01-27T03:50:20;7.60;;;3.03;;
6288;SDS011;3177;49.880;8.836;2024-01-27T03:52:47;3.33;;;2.80;;
6288;SDS011;3177;49.880;8.836;2024-01-27T03:55:14;11.13;;;3.13;;
6288;SDS011;3177;49.880;8.836;2024-01-27T03:57:41;3.80;;;2.57;;
6288;SDS011;3177;49.880;8.836;2024-01-27T04:00:08;4.23;;;3.10;;
6288;SDS011;3177;49.880;8.836;2024-01-27T04:02:37;7.67;;;2.80;;
6288;SDS011;3177;49.880;8.836;2024-01-27T04:05:05;3.70;;;2.87;;
6288;SDS011;3177;49.880;8.836;2024-01-27T04:07:33;2.90;;;2.70;;
6288;SDS011;3177;49.880;8.836;2024-01-27T04:10:01;2.57;;;2.37;;
6288;SDS011;3177;49.880;8.836;2024-01-27T04:12:29;8.73;;;3.20;;
6288;SDS011;3177;49.880;8.836;2024-01-27T04:14:56;7.50;;;2.57;;
6288;SDS011;3177;49.880;8.836;2024-01-27T04:17:24;2.03;;;1.93;;
6288;SDS011;3177;49.880;8.836;2024-01-27T04:19:52;7.23;;;2.70;;
6288;SDS011;3177;49.880;8.836;2024-01-27T04:22:19;4.83;;;2.60;;
6288;SDS011;3177;49.880;8.836;2024-01-27T04:24:47;4.90;;;2.87;;
6288;SDS011;3177;49.880;8.836;2024-01-27T04:27:14;3.90;;;2.40;;
6288;SDS011;3177;49.880;8.836;2024-01-27T04:29:41;6.50;;;2.97;;
6288;SDS011;3177;49.880;8.836;2024-01-27T04:32:08;3.10;;;2.67;;
6288;SDS011;3177;49.880;8.836;2024-01-27T04:34:35;3.23;;;2.77;;
6288;SDS011;3177;49.880;8.836;2024-01-27T04:37:03;3.70;;;2.63;;
6288;SDS011;3177;49.880;8.836;2024-01-27T04:39:30;6.33;;;2.83;;
6288;SDS011;3177;49.880;8.836;2024-01-27T04:41:58;5.40;;;2.90;;
6288;SDS011;3177;49.880;8.836;2024-01-27T04:44:25;2.93;;;2.70;;
6288;SDS011;3177;49.880;8.836;2024-01-27T04:46:52;4.23;;;3.07;;
6288;SDS011;3177;49.880;8.836;2024-01-27T04:49:19;6.10;;;3.33;;
6288;SDS011;3177;49.880;8.836;2024-01-27T04:51:47;3.23;;;2.37;;
6288;SDS011;3177;49.880;8.836;2024-01-27T04:54:14;10.07;;;3.40;;
6288;SDS011;3177;49.880;8.836;2024-01-27T04:56:41;4.97;;;2.97;;
6288;SDS011;3177;49.880;8.836;2024-01-27T04:59:09;5.53;;;2.67;;
6288;SDS011;3177;49.880;8.836;2024-01-27T05:01:36;3.67;;;2.87;;
6288;SDS011;3177;49.880;8.836;2024-01-27T05:04:03;4.30;;;2.90;;
6288;SDS011;3177;49.880;8.836;2024-01-27T05:06:30;4.83;;;2.80;;
6288;SDS011;3177;49.880;8.836;2024-01-27T05:08:57;5.63;;;2.77;;
6288;SDS011;3177;49.880;8.836;2024-01-27T05:11:25;4.77;;;2.57;;
6288;SDS011;3177;49.880;8.836;2024-01-27T05:13:52;6.93;;;3.03;;
6288;SDS011;3177;49.880;8.836;2024-01-27T05:16:21;7.40;;;3.03;;
6288;SDS011;3177;49.880;8.836;2024-01-27T05:18:48;5.60;;;3.00;;
6288;SDS011;3177;49.880;8.836;2024-01-27T05:21:15;4.67;;;3.23;;
6288;SDS011;3177;49.880;8.836;2024-01-27T05:23:42;10.13;;;4.00;;
6288;SDS011;3177;49.880;8.836;2024-01-27T05:26:09;3.93;;;2.80;;
6288;SDS011;3177;49.880;8.836;2024-01-27T05:28:36;8.10;;;4.00;;
6288;SDS011;3177;49.880;8.836;2024-01-27T05:31:06;24.67;;;10.47;;
6288;SDS011;3177;49.880;8.836;2024-01-27T05:33:34;14.30;;;6.73;;
6288;SDS011;3177;49.880;8.836;2024-01-27T05:36:01;12.47;;;6.50;;
6288;SDS011;3177;49.880;8.836;2024-01-27T05:38:28;6.43;;;3.60;;
6288;SDS011;3177;49.880;8.836;2024-01-27T05:40:57;3.60;;;3.30;;
6288;SDS011;3177;49.880;8.836;2024-01-27T05:43:24;2.63;;;2.53;;
6288;SDS011;3177;49.880;8.836;2024-01-27T05:45:51;4.23;;;3.13;;
6288;SDS011;3177;49.880;8.836;2024-01-27T05:48:18;2.97;;;2.73;;
6288;SDS011;3177;49.880;8.836;2024-01-27T05:50:54;3.63;;;3.30;;
6288;SDS011;3177;49.880;8.836;2024-01-27T05:53:21;5.50;;;2.90;;
6288;SDS011;3177;49.880;8.836;2024-01-27T05:55:48;4.20;;;3.50;;
6288;SDS011;3177;49.880;8.836;2024-01-27T05:58:15;3.07;;;2.70;;
6288;SDS011;3177;49.880;8.836;2024-01-27T06:00:42;5.87;;;3.60;;
6288;SDS011;3177;49.880;8.836;2024-01-27T06:03:10;6.93;;;3.27;;
6288;SDS011;3177;49.880;8.836;2024-01-27T06:05:37;5.97;;;3.20;;
6288;SDS011;3177;49.880;8.836;2024-01-27T06:08:05;3.73;;;2.90;;
6288;SDS011;3177;49.880;8.836;2024-01-27T06:10:33;7.07;;;3.80;;
6288;SDS011;3177;49.880;8.836;2024-01-27T06:13:01;6.80;;;4.00;;
6288;SDS011;3177;49.880;8.836;2024-01-27T06:15:28;5.23;;;3.80;;
6288;SDS011;3177;49.880;8.836;2024-01-27T06:17:55;5.47;;;3.27;;
6288;SDS011;3177;49.880;8.836;2024-01-27T06:20:22;3.57;;;2.97;;
6288;SDS011;3177;49.880;8.836;2024-01-27T06:22:49;5.27;;;3.60;;
6288;SDS011;3177;49.880;8.836;2024-01-27T06:25:18;3.90;;;3.07;;
6288;SDS011;3177;49.880;8.836;2024-01-27T06:27:45;5.33;;;4.17;;
6288;SDS011;3177;49.880;8.836;2024-01-27T06:30:32;11.97;;;4.00;;
6288;SDS011;3177;49.880;8.836;2024-01-27T06:32:59;5.57;;;3.43;;
6288;SDS011;3177;49.880;8.836;2024-01-27T06:35:26;7.37;;;3.73;;
6288;SDS011;3177;49.880;8.836;2024-01-27T06:37:53;8.17;;;3.40;;
6288;SDS011;3177;49.880;8.836;2024-01-27T06:40:21;7.80;;;3.40;;
6288;SDS011;3177;49.880;8.836;2024-01-27T06:42:48;4.97;;;3.50;;
6288;SDS011;3177;49.880;8.836;2024-01-27T06:45:15;4.77;;;3.87;;
6288;SDS011;3177;49.880;8.836;2024-01-27T06:47:42;5.83;;;5.23;;
6288;SDS011;3177;49.880;8.836;2024-01-27T06:50:09;6.43;;;3.87;;
6288;SDS011;3177;49.880;8.836;2024-01-27T06:52:38;3.20;;;3.00;;
6288;SDS011;3177;49.880;8.836;2024-01-27T06:55:06;5.40;;;3.43;;
6288;SDS011;3177;49.880;8.836;2024-01-27T06:57:37;6.47;;;2.73;;
6288;SDS011;3177;49.880;8.836;2024-01-27T07:00:06;4.50;;;3.70;;
6288;SDS011;3177;49.880;8.836;2024-01-27T07:02:33;7.80;;;4.30;;
6288;SDS011;3177;49.880;8.836;2024-01-27T07:05:00;7.33;;;3.10;;
6288;SDS011;3177;49.880;8.836;2024-01-27T07:07:27;5.13;;;3.63;;
6288;SDS011;3177;49.880;8.836;2024-01-27T07:09:55;8.00;;;4.30;;
6288;SDS011;3177;49.880;8.836;2024-01-27T07:12:22;9.17;;;4.20;;
6288;SDS011;3177;49.880;8.836;2024-01-27T07:14:51;4.73;;;4.03;;
6288;SDS011;3177;49.880;8.836;2024-01-27T07:17:19;7.43;;;3.37;;
6288;SDS011;3177;49.880;8.836;2024-01-27T07:19:46;6.63;;;3.63;;
6288;SDS011;3177;49.880;8.836;2024-01-27T07:22:13;6.53;;;3.43;;
6288;SDS011;3177;49.880;8.836;2024-01-27T07:24:40;5.33;;;3.83;;
6288;SDS011;3177;49.880;8.836;2024-01-27T07:27:09;4.83;;;3.67;;
6288;SDS011;3177;49.880;8.836;2024-01-27T07:29:36;9.33;;;3.10;;
6288;SDS011;3177;49.880;8.836;2024-01-27T07:32:05;7.83;;;3.10;;
6288;SDS011;3177;49.880;8.836;2024-01-27T07:34:38;3.43;;;2.90;;
6288;SDS011;3177;49.880;8.836;2024-01-27T07:37:05;3.70;;;3.40;;
6288;SDS011;3177;49.880;8.836;2024-01-27T07:39:33;6.73;;;4.30;;
6288;SDS011;3177;49.880;8.836;2024-01-27T07:42:00;4.17;;;3.70;;
6288;SDS011;3177;49.880;8.836;2024-01-27T07:44:27;5.40;;;3.60;;
6288;SDS011;3177;49.880;8.836;2024-01-27T07:46:54;3.70;;;3.40;;
6288;SDS011;3177;49.880;8.836;2024-01-27T07:49:23;8.83;;;4.03;;
6288;SDS011;3177;49.880;8.836;2024-01-27T07:51:50;8.27;;;3.73;;
6288;SDS011;3177;49.880;8.836;2024-01-27T07:54:17;5.80;;;3.00;;
6288;SDS011;3177;49.880;8.836;2024-01-27T07:56:44;4.30;;;3.23;;
6288;SDS011;3177;49.880;8.836;2024-01-27T07:59:12;5.37;;;3.57;;
6288;SDS011;3177;49.880;8.836;2024-01-27T08:01:40;7.70;;;4.10;;
6288;SDS011;3177;49.880;8.836;2024-01-27T08:04:07;5.47;;;4.43;;
6288;SDS011;3177;49.880;8.836;2024-01-27T08:06:45;4.80;;;4.40;;
6288;SDS011;3177;49.880;8.836;2024-01-27T08:09:12;5.67;;;3.33;;
6288;SDS011;3177;49.880;8.836;2024-01-27T08:11:39;7.80;;;4.10;;
6288;SDS011;3177;49.880;8.836;2024-01-27T08:14:06;5.27;;;3.70;;
6288;SDS011;3177;49.880;8.836;2024-01-27T08:16:33;8.40;;;5.00;;
6288;SDS011;3177;49.880;8.836;2024-01-27T08:19:00;6.23;;;4.70;;
6288;SDS011;3177;49.880;8.836;2024-01-27T08:21:27;4.67;;;4.23;;
6288;SDS011;3177;49.880;8.836;2024-01-27T08:23:56;6.87;;;4.80;;
6288;SDS011;3177;49.880;8.836;2024-01-27T08:26:23;13.47;;;6.00;;
6288;SDS011;3177;49.880;8.836;2024-01-27T08:28:50;5.77;;;4.27;;
6288;SDS011;3177;49.880;8.836;2024-01-27T08:31:17;13.77;;;7.03;;
6288;SDS011;3177;49.880;8.836;2024-01-27T08:33:44;10.53;;;5.47;;
6288;SDS011;3177;49.880;8.836;2024-01-27T08:36:12;8.63;;;4.90;;
6288;SDS011;3177;49.880;8.836;2024-01-27T08:38:40;6.47;;;4.47;;
6288;SDS011;3177;49.880;8.836;2024-01-27T08:41:08;20.33;;;5.70;;
6288;SDS011;3177;49.880;8.836;2024-01-27T08:43:35;10.80;;;4.87;;
6288;SDS011;3177;49.880;8.836;2024-01-27T08:46:02;4.33;;;3.93;;
6288;SDS011;3177;49.880;8.836;2024-01-27T08:48:29;9.03;;;4.30;;
6288;SDS011;3177;49.880;8.836;2024-01-27T08:50:56;10.90;;;4.50;;
6288;SDS011;3177;49.880;8.836;2024-01-27T08:53:23;8.17;;;4.60;;
6288;SDS011;3177;49.880;8.836;2024-01-27T08:55:50;6.07;;;4.10;;
6288;SDS011;3177;49.880;8.836;2024-01-27T08:58:18;6.07;;;4.00;;
6288;SDS011;3177;49.880;8.836;2024-01-27T09:00:46;13.63;;;4.63;;
6288;SDS011;3177;49.880;8.836;2024-01-27T09:03:13;7.90;;;4.10;;
6288;SDS011;3177;49.880;8.836;2024-01-27T09:05:40;5.10;;;4.03;;
6288;SDS011;3177;49.880;8.836;2024-01-27T09:08:09;4.37;;;3.47;;
6288;SDS011;3177;49.880;8.836;2024-01-27T09:10:36;3.50;;;3.20;;
6288;SDS011;3177;49.880;8.836;2024-01-27T09:13:03;13.17;;;4.33;;
6288;SDS011;3177;49.880;8.836;2024-01-27T09:15:32;5.40;;;3.50;;
6288;SDS011;3177;49.880;8.836;2024-01-27T09:17:59;8.83;;;3.83;;
6288;SDS011;3177;49.880;8.836;2024-01-27T09:20:26;8.50;;;4.33;;
6288;SDS011;3177;49.880;8.836;2024-01-27T09:22:53;7.83;;;4.00;;
6288;SDS011;3177;49.880;8.836;2024-01-27T09:25:20;6.70;;;4.47;;
6288;SDS011;3177;49.880;8.836;2024-01-27T09:27:49;7.00;;;4.87;;
6288;SDS011;3177;49.880;8.836;2024-01-27T09:30:16;6.30;;;4.77;;
6288;SDS011;3177;49.880;8.836;2024-01-27T09:32:45;11.63;;;5.07;;
6288;SDS011;3177;49.880;8.836;2024-01-27T09:35:12;12.23;;;5.13;;
6288;SDS011;3177;49.880;8.836;2024-01-27T09:37:41;12.53;;;4.63;;
6288;SDS011;3177;49.880;8.836;2024-01-27T09:40:11;13.83;;;5.83;;
6288;SDS011;3177;49.880;8.836;2024-01-27T09:42:38;4.90;;;4.40;;
6288;SDS011;3177;49.880;8.836;2024-01-27T09:45:05;8.17;;;5.60;;
6288;SDS011;3177;49.880;8.836;2024-01-27T09:47:33;9.07;;;4.73;;
6288;SDS011;3177;49.880;8.836;2024-01-27T09:50:02;5.67;;;4.23;;
6288;SDS011;3177;49.880;8.836;2024-01-27T09:52:29;10.10;;;4.00;;
6288;SDS011;3177;49.880;8.836;2024-01-27T09:54:56;9.60;;;4.80;;
6288;SDS011;3177;49.880;8.836;2024-01-27T09:57:23;11.67;;;5.30;;
6288;SDS011;3177;49.880;8.836;2024-01-27T09:59:50;13.90;;;5.10;;
6288;SDS011;3177;49.880;8.836;2024-01-27T10:02:18;6.60;;;4.97;;
6288;SDS011;3177;49.880;8.836;2024-01-27T10:04:47;9.63;;;4.80;;
6288;SDS011;3177;49.880;8.836;2024-01-27T10:07:16;9.73;;;4.90;;
6288;SDS011;3177;49.880;8.836;2024-01-27T10:09:43;6.43;;;4.40;;
6288;SDS011;3177;49.880;8.836;2024-01-27T10:12:10;10.53;;;5.40;;
6288;SDS011;3177;49.880;8.836;2024-01-27T10:14:39;6.23;;;4.40;;
6288;SDS011;3177;49.880;8.836;2024-01-27T10:17:08;9.77;;;4.37;;
6288;SDS011;3177;49.880;8.836;2024-01-27T10:19:36;11.37;;;4.03;;
6288;SDS011;3177;49.880;8.836;2024-01-27T10:22:03;8.10;;;3.73;;
6288;SDS011;3177;49.880;8.836;2024-01-27T10:24:32;5.23;;;3.37;;
6288;SDS011;3177;49.880;8.836;2024-01-27T10:27:00;8.93;;;3.27;;
6288;SDS011;3177;49.880;8.836;2024-01-27T10:29:28;6.27;;;3.37;;
6288;SDS011;3177;49.880;8.836;2024-01-27T10:31:55;8.47;;;3.47;;
6288;SDS011;3177;49.880;8.836;2024-01-27T10:34:22;9.37;;;3.40;;
6288;SDS011;3177;49.880;8.836;2024-01-27T10:36:49;9.80;;;3.53;;
6288;SDS011;3177;49.880;8.836;2024-01-27T10:39:16;6.07;;;3.00;;
6288;SDS011;3177;49.880;8.836;2024-01-27T10:41:46;8.77;;;3.83;;
6288;SDS011;3177;49.880;8.836;2024-01-27T10:44:14;4.70;;;2.67;;
6288;SDS011;3177;49.880;8.836;2024-01-27T10:46:42;14.10;;;3.07;;
6288;SDS011;3177;49.880;8.836;2024-01-27T10:49:11;6.77;;;3.70;;
6288;SDS011;3177;49.880;8.836;2024-01-27T10:51:38;9.17;;;3.37;;
6288;SDS011;3177;49.880;8.836;2024-01-27T10:54:10;11.37;;;2.90;;
6288;SDS011;3177;49.880;8.836;2024-01-27T10:56:39;3.03;;;2.57;;
6288;SDS011;3177;49.880;8.836;2024-01-27T10:59:08;4.67;;;2.80;;
6288;SDS011;3177;49.880;8.836;2024-01-27T11:01:35;13.93;;;2.80;;
6288;SDS011;3177;49.880;8.836;2024-01-27T11:04:03;4.67;;;3.03;;
6288;SDS011;3177;49.880;8.836;2024-01-27T11:06:32;4.70;;;3.07;;
6288;SDS011;3177;49.880;8.836;2024-01-27T11:09:00;6.10;;;2.57;;
6288;SDS011;3177;49.880;8.836;2024-01-27T11:11:30;9.23;;;3.00;;
6288;SDS011;3177;49.880;8.836;2024-01-27T11:13:57;6.40;;;2.83;;
6288;SDS011;3177;49.880;8.836;2024-01-27T11:16:26;8.27;;;3.03;;
6288;SDS011;3177;49.880;8.836;2024-01-27T11:18:53;3.93;;;2.83;;
6288;SDS011;3177;49.880;8.836;2024-01-27T11:21:20;12.60;;;3.30;;
6288;SDS011;3177;49.880;8.836;2024-01-27T11:23:50;5.33;;;2.87;;
6288;SDS011;3177;49.880;8.836;2024-01-27T11:26:18;9.90;;;3.27;;
6288;SDS011;3177;49.880;8.836;2024-01-27T11:28:46;8.60;;;2.73;;
6288;SDS011;3177;49.880;8.836;2024-01-27T11:31:15;11.70;;;2.80;;
6288;SDS011;3177;49.880;8.836;2024-01-27T11:33:45;6.90;;;2.80;;
6288;SDS011;3177;49.880;8.836;2024-01-27T11:36:20;7.53;;;3.20;;
6288;SDS011;3177;49.880;8.836;2024-01-27T11:38:48;4.10;;;2.70;;
6288;SDS011;3177;49.880;8.836;2024-01-27T11:41:25;5.57;;;2.73;;
6288;SDS011;3177;49.880;8.836;2024-01-27T11:43:52;6.53;;;2.83;;
6288;SDS011;3177;49.880;8.836;2024-01-27T11:46:19;2.77;;;2.57;;
6288;SDS011;3177;49.880;8.836;2024-01-27T11:48:48;4.97;;;2.90;;
6288;SDS011;3177;49.880;8.836;2024-01-27T11:51:15;4.23;;;2.97;;
6288;SDS011;3177;49.880;8.836;2024-01-27T11:53:43;8.30;;;3.20;;
6288;SDS011;3177;49.880;8.836;2024-01-27T11:56:11;5.67;;;3.10;;
6288;SDS011;3177;49.880;8.836;2024-01-27T11:58:45;2.40;;;2.20;;
6288;SDS011;3177;49.880;8.836;2024-01-27T12:01:12;8.47;;;2.80;;
6288;SDS011;3177;49.880;8.836;2024-01-27T12:03:39;6.43;;;2.80;;
6288;SDS011;3177;49.880;8.836;2024-01-27T12:06:08;2.80;;;2.60;;
6288;SDS011;3177;49.880;8.836;2024-01-27T12:08:35;12.30;;;3.40;;
6288;SDS011;3177;49.880;8.836;2024-01-27T12:11:02;10.37;;;3.03;;
6288;SDS011;3177;49.880;8.836;2024-01-27T12:13:29;9.70;;;3.10;;
6288;SDS011;3177;49.880;8.836;2024-01-27T12:15:56;8.67;;;3.47;;
6288;SDS011;3177;49.880;8.836;2024-01-27T12:18:24;7.83;;;3.00;;
6288;SDS011;3177;49.880;8.836;2024-01-27T12:20:54;6.27;;;3.13;;
6288;SDS011;3177;49.880;8.836;2024-01-27T12:23:22;6.20;;;2.97;;
6288;SDS011;3177;49.880;8.836;2024-01-27T12:25:52;8.43;;;2.53;;
6288;SDS011;3177;49.880;8.836;2024-01-27T12:28:20;4.73;;;2.83;;
6288;SDS011;3177;49.880;8.836;2024-01-27T12:30:47;8.73;;;2.67;;
6288;SDS011;3177;49.880;8.836;2024-01-27T12:33:14;5.30;;;2.90;;
6288;SDS011;3177;49.880;8.836;2024-01-27T12:35:44;5.03;;;2.70;;
6288;SDS011;3177;49.880;8.836;2024-01-27T12:38:11;7.00;;;2.73;;
6288;SDS011;3177;49.880;8.836;2024-01-27T12:40:39;9.33;;;3.23;;
6288;SDS011;3177;49.880;8.836;2024-01-27T12:43:06;6.37;;;2.90;;
6288;SDS011;3177;49.880;8.836;2024-01-27T12:45:34;6.90;;;3.10;;
6288;SDS011;3177;49.880;8.836;2024-01-27T12:48:03;8.93;;;3.10;;
6288;SDS011;3177;49.880;8.836;2024-01-27T12:50:30;13.67;;;3.30;;
6288;SDS011;3177;49.880;8.836;2024-01-27T12:52:58;7.57;;;2.60;;
6288;SDS011;3177;49.880;8.836;2024-01-27T12:55:25;7.83;;;2.30;;
6288;SDS011;3177;49.880;8.836;2024-01-27T12:57:54;6.73;;;2.63;;
6288;SDS011;3177;49.880;8.836;2024-01-27T13:00:22;6.00;;;2.57;;
6288;SDS011;3177;49.880;8.836;2024-01-27T13:02:49;2.83;;;2.40;;
6288;SDS011;3177;49.880;8.836;2024-01-27T13:05:16;6.33;;;3.10;;
6288;SDS011;3177;49.880;8.836;2024-01-27T13:07:43;5.53;;;2.70;;
6288;SDS011;3177;49.880;8.836;2024-01-27T13:10:10;6.33;;;2.50;;
6288;SDS011;3177;49.880;8.836;2024-01-27T13:12:37;2.40;;;2.13;;
6288;SDS011;3177;49.880;8.836;2024-01-27T13:15:06;7.93;;;2.83;;
6288;SDS011;3177;49.880;8.836;2024-01-27T13:17:33;7.50;;;2.50;;
6288;SDS011;3177;49.880;8.836;2024-01-27T13:20:00;5.70;;;2.03;;
6288;SDS011;3177;49.880;8.836;2024-01-27T13:22:27;7.67;;;2.73;;
6288;SDS011;3177;49.880;8.836;2024-01-27T13:24:54;7.63;;;2.60;;
6288;SDS011;3177;49.880;8.836;2024-01-27T13:27:22;4.10;;;2.23;;
6288;SDS011;3177;49.880;8.836;2024-01-27T13:29:49;4.10;;;2.37;;
6288;SDS011;3177;49.880;8.836;2024-01-27T13:32:18;7.50;;;2.47;;
6288;SDS011;3177;49.880;8.836;2024-01-27T13:34:45;6.33;;;2.07;;
6288;SDS011;3177;49.880;8.836;2024-01-27T13:37:12;5.93;;;2.47;;
6288;SDS011;3177;49.880;8.836;2024-01-27T13:39:41;4.43;;;2.00;;
6288;SDS011;3177;49.880;8.836;2024-01-27T13:42:08;5.03;;;2.30;;
6288;SDS011;3177;49.880;8.836;2024-01-27T13:44:35;5.37;;;2.70;;
6288;SDS011;3177;49.880;8.836;2024-01-27T13:47:02;7.73;;;2.23;;
6288;SDS011;3177;49.880;8.836;2024-01-27T13:49:31;5.67;;;2.37;;
6288;SDS011;3177;49.880;8.836;2024-01-27T13:51:58;6.70;;;2.77;;
6288;SDS011;3177;49.880;8.836;2024-01-27T13:54:25;7.60;;;2.70;;
6288;SDS011;3177;49.880;8.836;2024-01-27T13:56:52;7.80;;;2.43;;
6288;SDS011;3177;49.880;8.836;2024-01-27T13:59:20;7.87;;;2.50;;
6288;SDS011;3177;49.880;8.836;2024-01-27T14:01:47;4.00;;;2.27;;
6288;SDS011;3177;49.880;8.836;2024-01-27T14:04:14;4.93;;;2.27;;
6288;SDS011;3177;49.880;8.836;2024-01-27T14:06:42;8.90;;;2.67;;
6288;SDS011;3177;49.880;8.836;2024-01-27T14:09:09;6.53;;;2.50;;
6288;SDS011;3177;49.880;8.836;2024-01-27T14:11:38;10.10;;;2.57;;
6288;SDS011;3177;49.880;8.836;2024-01-27T14:14:05;7.40;;;2.60;;
6288;SDS011;3177;49.880;8.836;2024-01-27T14:16:32;3.13;;;2.40;;
6288;SDS011;3177;49.880;8.836;2024-01-27T14:18:59;4.37;;;2.57;;
6288;SDS011;3177;49.880;8.836;2024-01-27T14:21:26;4.47;;;2.57;;
6288;SDS011;3177;49.880;8.836;2024-01-27T14:23:55;9.33;;;2.60;;
6288;SDS011;3177;49.880;8.836;2024-01-27T14:26:26;6.00;;;2.43;;
6288;SDS011;3177;49.880;8.836;2024-01-27T14:28:53;9.60;;;2.50;;
6288;SDS011;3177;49.880;8.836;2024-01-27T14:31:20;4.10;;;2.70;;
6288;SDS011;3177;49.880;8.836;2024-01-27T14:33:48;6.33;;;2.60;;
6288;SDS011;3177;49.880;8.836;2024-01-27T14:36:15;3.00;;;2.30;;
6288;SDS011;3177;49.880;8.836;2024-01-27T14:38:42;7.97;;;2.20;;
6288;SDS011;3177;49.880;8.836;2024-01-27T14:41:10;2.40;;;1.90;;
6288;SDS011;3177;49.880;8.836;2024-01-27T14:43:37;3.43;;;2.23;;
6288;SDS011;3177;49.880;8.836;2024-01-27T14:46:04;5.43;;;2.43;;
6288;SDS011;3177;49.880;8.836;2024-01-27T14:48:31;4.47;;;2.23;;
6288;SDS011;3177;49.880;8.836;2024-01-27T14:51:00;2.67;;;2.00;;
6288;SDS011;3177;49.880;8.836;2024-01-27T14:53:28;8.03;;;2.10;;
6288;SDS011;3177;49.880;8.836;2024-01-27T14:55:55;5.57;;;2.33;;
6288;SDS011;3177;49.880;8.836;2024-01-27T14:58:24;3.67;;;2.20;;
6288;SDS011;3177;49.880;8.836;2024-01-27T15:00:51;5.37;;;2.60;;
6288;SDS011;3177;49.880;8.836;2024-01-27T15:03:18;4.97;;;2.30;;
6288;SDS011;3177;49.880;8.836;2024-01-27T15:05:46;8.47;;;2.43;;
6288;SDS011;3177;49.880;8.836;2024-01-27T15:08:13;7.57;;;2.20;;
6288;SDS011;3177;49.880;8.836;2024-01-27T15:10:40;4.40;;;2.23;;
6288;SDS011;3177;49.880;8.836;2024-01-27T15:13:08;2.97;;;2.40;;
6288;SDS011;3177;49.880;8.836;2024-01-27T15:15:37;7.57;;;2.20;;
6288;SDS011;3177;49.880;8.836;2024-01-27T15:18:05;8.40;;;2.33;;
6288;SDS011;3177;49.880;8.836;2024-01-27T15:20:32;5.70;;;2.30;;